sensor_id;sensor_type;location;lat;lon;timestamp;pressure;altitude;pressure_sealevel;temperature;humidity
64521;BME280;50896;46.714;17.322;2023-05-12T00:01:55;100236.22;;;11.79;100.00
64521;BME280;50896;46.714;17.322;2023-05-12T00:04:22;100233.47;;;11.72;100.00
64521;BME280;50896;46.714;17.322;2023-05-12T00:06:49;100232.56;;;11.80;100.00
64521;BME280;50896;46.714;17.322;2023-05-12T00:09:15;100243.63;;;11.69;100.00
64521;BME280;50896;46.714;17.322;2023-05-12T00:11:42;100234.31;;;11.65;100.00
64521;BME280;50896;46.714;17.322;2023-05-12T00:14:09;100239.81;;;11.63;100.00
64521;BME280;50896;46.714;17.322;2023-05-12T00:16:36;100234.66;;;11.61;100.00
64521;BME280;50896;46.714;17.322;2023-05-12T00:19:03;100223.69;;;11.56;100.00
64521;BME280;50896;46.714;17.322;2023-05-12T00:21:29;100232.00;;;11.61;100.00
64521;BME280;50896;46.714;17.322;2023-05-12T00:23:56;100232.66;;;11.63;100.00
64521;BME280;50896;46.714;17.322;2023-05-12T00:26:23;100229.16;;;11.63;100.00
64521;BME280;50896;46.714;17.322;2023-05-12T00:28:51;100233.34;;;11.57;100.00
64521;BME280;50896;46.714;17.322;2023-05-12T00:31:17;100228.22;;;11.56;100.00
64521;BME280;50896;46.714;17.322;2023-05-12T00:33:44;100218.72;;;11.53;100.00
64521;BME280;50896;46.714;17.322;2023-05-12T00:36:11;100227.06;;;11.50;100.00
64521;BME280;50896;46.714;17.322;2023-05-12T00:38:38;100227.06;;;11.50;100.00
64521;BME280;50896;46.714;17.322;2023-05-12T00:41:05;100234.38;;;11.48;100.00
64521;BME280;50896;46.714;17.322;2023-05-12T00:43:32;100214.59;;;11.42;100.00
64521;BME280;50896;46.714;17.322;2023-05-12T00:46:00;100225.72;;;11.54;100.00
64521;BME280;50896;46.714;17.322;2023-05-12T00:48:28;100220.44;;;11.46;100.00
64521;BME280;50896;46.714;17.322;2023-05-12T00:50:55;100225.72;;;11.54;100.00
64521;BME280;50896;46.714;17.322;2023-05-12T00:53:23;100209.78;;;11.46;100.00
64521;BME280;50896;46.714;17.322;2023-05-12T00:55:56;100216.06;;;11.53;100.00
64521;BME280;50896;46.714;17.322;2023-05-12T00:58:25;100215.28;;;11.44;100.00
64521;BME280;50896;46.714;17.322;2023-05-12T01:00:52;100219.56;;;11.54;100.00
64521;BME280;50896;46.714;17.322;2023-05-12T01:03:19;100219.91;;;11.51;100.00
64521;BME280;50896;46.714;17.322;2023-05-12T01:05:56;100222.22;;;11.54;100.00
64521;BME280;50896;46.714;17.322;2023-05-12T01:08:25;100223.72;;;11.48;100.00
64521;BME280;50896;46.714;17.322;2023-05-12T01:10:52;100219.59;;;11.45;100.00
64521;BME280;50896;46.714;17.322;2023-05-12T01:13:19;100215.75;;;11.48;100.00
64521;BME280;50896;46.714;17.322;2023-05-12T01:15:48;100216.06;;;11.53;100.00
64521;BME280;50896;46.714;17.322;2023-05-12T01:18:18;100223.06;;;11.54;100.00
64521;BME280;50896;46.714;17.322;2023-05-12T01:20:47;100224.56;;;11.57;100.00
64521;BME280;50896;46.714;17.322;2023-05-12T01:23:17;100223.19;;;11.61;100.00
64521;BME280;50896;46.714;17.322;2023-05-12T01:25:47;100219.50;;;11.62;100.00
64521;BME280;50896;46.714;17.322;2023-05-12T01:28:16;100232.22;;;11.52;100.00
64521;BME280;50896;46.714;17.322;2023-05-12T01:30:43;100222.22;;;11.54;100.00
64521;BME280;50896;46.714;17.322;2023-05-12T01:33:12;100220.06;;;11.49;100.00
64521;BME280;50896;46.714;17.322;2023-05-12T01:35:40;100217.28;;;11.42;100.00
64521;BME280;50896;46.714;17.322;2023-05-12T01:38:07;100221.25;;;11.46;100.00
64521;BME280;50896;46.714;17.322;2023-05-12T01:40:36;100222.91;;;11.48;100.00
64521;BME280;50896;46.714;17.322;2023-05-12T01:43:04;100218.41;;;11.48;100.00
64521;BME280;50896;46.714;17.322;2023-05-12T01:45:31;100224.75;;;11.47;100.00
64521;BME280;50896;46.714;17.322;2023-05-12T01:47:58;100227.34;;;11.55;100.00
64521;BME280;50896;46.714;17.322;2023-05-12T01:50:26;100218.22;;;11.50;100.00
64521;BME280;50896;46.714;17.322;2023-05-12T01:52:53;100226.91;;;11.52;100.00
64521;BME280;50896;46.714;17.322;2023-05-12T01:55:20;100221.44;;;11.45;100.00
64521;BME280;50896;46.714;17.322;2023-05-12T01:57:54;100230.56;;;11.51;100.00
64521;BME280;50896;46.714;17.322;2023-05-12T02:00:21;100224.41;;;11.50;100.00
64521;BME280;50896;46.714;17.322;2023-05-12T02:02:51;100223.06;;;11.54;100.00
64521;BME280;50896;46.714;17.322;2023-05-12T02:05:18;100227.88;;;11.51;100.00
64521;BME280;50896;46.714;17.322;2023-05-12T02:07:47;100235.03;;;11.58;100.00
64521;BME280;50896;46.714;17.322;2023-05-12T02:10:15;100222.38;;;11.52;100.00
64521;BME280;50896;46.714;17.322;2023-05-12T02:12:43;100222.19;;;11.62;100.00
64521;BME280;50896;46.714;17.322;2023-05-12T02:15:10;100219.22;;;11.57;100.00
64521;BME280;50896;46.714;17.322;2023-05-12T02:17:43;100218.91;;;11.52;100.00
64521;BME280;50896;46.714;17.322;2023-05-12T02:20:10;100216.09;;;11.45;100.00
64521;BME280;50896;46.714;17.322;2023-05-12T02:22:37;100217.06;;;11.52;100.00
64521;BME280;50896;46.714;17.322;2023-05-12T02:25:05;100221.41;;;11.53;100.00
64521;BME280;50896;46.714;17.322;2023-05-12T02:27:32;100224.88;;;11.54;100.00
64521;BME280;50896;46.714;17.322;2023-05-12T02:29:59;100227.53;;;11.54;100.00
64521;BME280;50896;46.714;17.322;2023-05-12T02:32:26;100226.22;;;11.50;100.00
64521;BME280;50896;46.714;17.322;2023-05-12T02:34:56;100226.06;;;11.51;100.00
64521;BME280;50896;46.714;17.322;2023-05-12T02:37:22;100219.44;;;11.47;100.00
64521;BME280;50896;46.714;17.322;2023-05-12T02:39:49;100221.06;;;11.48;100.00
64521;BME280;50896;46.714;17.322;2023-05-12T02:42:17;100216.09;;;11.45;100.00
64521;BME280;50896;46.714;17.322;2023-05-12T02:44:44;100223.41;;;11.51;100.00
64521;BME280;50896;46.714;17.322;2023-05-12T02:47:11;100225.94;;;11.44;100.00
64521;BME280;50896;46.714;17.322;2023-05-12T02:49:38;100227.25;;;11.49;100.00
64521;BME280;50896;46.714;17.322;2023-05-12T02:52:05;100219.25;;;11.49;100.00
64521;BME280;50896;46.714;17.322;2023-05-12T02:54:32;100216.56;;;11.57;100.00
64521;BME280;50896;46.714;17.322;2023-05-12T02:57:03;100227.06;;;11.50;100.00
64521;BME280;50896;46.714;17.322;2023-05-12T02:59:30;100219.75;;;11.44;100.00
64521;BME280;50896;46.714;17.322;2023-05-12T03:01:58;100216.13;;;11.37;100.00
64521;BME280;50896;46.714;17.322;2023-05-12T03:04:25;100220.47;;;11.38;100.00
64521;BME280;50896;46.714;17.322;2023-05-12T03:06:51;100216.97;;;11.37;100.00
64521;BME280;50896;46.714;17.322;2023-05-12T03:09:19;100216.13;;;11.37;100.00
64521;BME280;50896;46.714;17.322;2023-05-12T03:11:45;100219.78;;;11.36;100.00
64521;BME280;50896;46.714;17.322;2023-05-12T03:14:12;100220.78;;;11.43;100.00
64521;BME280;50896;46.714;17.322;2023-05-12T03:16:39;100217.63;;;11.39;100.00
64521;BME280;50896;46.714;17.322;2023-05-12T03:19:06;100222.59;;;11.42;100.00
64521;BME280;50896;46.714;17.322;2023-05-12T03:21:33;100218.94;;;11.43;100.00
64521;BME280;50896;46.714;17.322;2023-05-12T03:24:00;100217.81;;;11.38;100.00
64521;BME280;50896;46.714;17.322;2023-05-12T03:26:27;100212.47;;;11.38;100.00
64521;BME280;50896;46.714;17.322;2023-05-12T03:28:54;100213.28;;;11.38;100.00
64521;BME280;50896;46.714;17.322;2023-05-12T03:31:21;100222.09;;;11.47;100.00
64521;BME280;50896;46.714;17.322;2023-05-12T03:33:48;100218.75;;;11.45;100.00
64521;BME280;50896;46.714;17.322;2023-05-12T03:36:15;100216.63;;;11.40;100.00
64521;BME280;50896;46.714;17.322;2023-05-12T03:38:41;100213.47;;;11.37;100.00
64521;BME280;50896;46.714;17.322;2023-05-12T03:41:11;100222.41;;;11.44;100.00
64521;BME280;50896;46.714;17.322;2023-05-12T03:43:38;100213.81;;;11.34;100.00
64521;BME280;50896;46.714;17.322;2023-05-12T03:46:05;100220.78;;;11.43;100.00
64521;BME280;50896;46.714;17.322;2023-05-12T03:48:32;100230.41;;;11.44;100.00
64521;BME280;50896;46.714;17.322;2023-05-12T03:50:59;100221.59;;;11.43;100.00
64521;BME280;50896;46.714;17.322;2023-05-12T03:53:26;100226.75;;;11.45;100.00
64521;BME280;50896;46.714;17.322;2023-05-12T03:55:53;100221.44;;;11.45;100.00
64521;BME280;50896;46.714;17.322;2023-05-12T03:58:23;100214.94;;;11.48;100.00
64521;BME280;50896;46.714;17.322;2023-05-12T04:00:50;100231.25;;;11.44;100.00
64521;BME280;50896;46.714;17.322;2023-05-12T04:03:17;100223.28;;;11.44;100.00
64521;BME280;50896;46.714;17.322;2023-05-12T04:05:43;100228.94;;;11.41;100.00
64521;BME280;50896;46.714;17.322;2023-05-12T04:08:10;100225.59;;;11.39;100.00
64521;BME280;50896;46.714;17.322;2023-05-12T04:10:38;100217.13;;;11.36;100.00
64521;BME280;50896;46.714;17.322;2023-05-12T04:13:06;100220.97;;;11.33;100.00
64521;BME280;50896;46.714;17.322;2023-05-12T04:15:36;100226.13;;;11.35;100.00
64521;BME280;50896;46.714;17.322;2023-05-12T04:18:03;100231.44;;;11.43;100.00
64521;BME280;50896;46.714;17.322;2023-05-12T04:20:30;100227.63;;;11.37;100.00
64521;BME280;50896;46.714;17.322;2023-05-12T04:22:57;100230.44;;;11.36;100.00
64521;BME280;50896;46.714;17.322;2023-05-12T04:25:23;100231.47;;;11.35;100.00
64521;BME280;50896;46.714;17.322;2023-05-12T04:27:50;100230.94;;;11.39;100.00
64521;BME280;50896;46.714;17.322;2023-05-12T04:30:17;100224.28;;;11.35;100.00
64521;BME280;50896;46.714;17.322;2023-05-12T04:32:45;100233.78;;;11.38;100.00
64521;BME280;50896;46.714;17.322;2023-05-12T04:35:12;100233.41;;;11.41;100.00
64521;BME280;50896;46.714;17.322;2023-05-12T04:37:39;100231.75;;;11.40;100.00
64521;BME280;50896;46.714;17.322;2023-05-12T04:40:07;100236.25;;;11.39;100.00
64521;BME280;50896;46.714;17.322;2023-05-12T04:42:34;100235.59;;;11.37;100.00
64521;BME280;50896;46.714;17.322;2023-05-12T04:45:01;100247.06;;;11.38;100.00
64521;BME280;50896;46.714;17.322;2023-05-12T04:47:28;100244.75;;;11.43;100.00
64521;BME280;50896;46.714;17.322;2023-05-12T04:49:55;100256.84;;;11.45;100.00
64521;BME280;50896;46.714;17.322;2023-05-12T04:52:22;100260.22;;;11.39;100.00
64521;BME280;50896;46.714;17.322;2023-05-12T04:54:50;100259.69;;;11.44;100.00
64521;BME280;50896;46.714;17.322;2023-05-12T04:57:17;100253.91;;;11.40;100.00
64521;BME280;50896;46.714;17.322;2023-05-12T04:59:44;100264.88;;;11.37;100.00
64521;BME280;50896;46.714;17.322;2023-05-12T05:02:11;100258.41;;;11.32;100.00
64521;BME280;50896;46.714;17.322;2023-05-12T05:04:38;100266.53;;;11.38;100.00
64521;BME280;50896;46.714;17.322;2023-05-12T05:07:05;100261.38;;;11.37;100.00
64521;BME280;50896;46.714;17.322;2023-05-12T05:09:32;100263.03;;;11.38;100.00
64521;BME280;50896;46.714;17.322;2023-05-12T05:12:02;100271.38;;;11.35;100.00
64521;BME280;50896;46.714;17.322;2023-05-12T05:14:28;100269.38;;;11.37;100.00
64521;BME280;50896;46.714;17.322;2023-05-12T05:16:55;100278.03;;;11.31;100.00
64521;BME280;50896;46.714;17.322;2023-05-12T05:19:22;100270.69;;;11.33;100.00
64521;BME280;50896;46.714;17.322;2023-05-12T05:22:10;100272.91;;;11.29;100.00
64521;BME280;50896;46.714;17.322;2023-05-12T05:24:37;100275.03;;;11.34;100.00
64521;BME280;50896;46.714;17.322;2023-05-12T05:27:04;100277.06;;;11.32;100.00
64521;BME280;50896;46.714;17.322;2023-05-12T05:29:31;100278.34;;;11.36;100.00
64521;BME280;50896;46.714;17.322;2023-05-12T05:31:58;100279.72;;;11.32;100.00
64521;BME280;50896;46.714;17.322;2023-05-12T05:34:25;100278.03;;;11.31;100.00
64521;BME280;50896;46.714;17.322;2023-05-12T05:36:52;100278.88;;;11.31;100.00
64521;BME280;50896;46.714;17.322;2023-05-12T05:39:18;100282.50;;;11.38;100.00
64521;BME280;50896;46.714;17.322;2023-05-12T05:41:45;100291.31;;;11.47;100.00
64521;BME280;50896;46.714;17.322;2023-05-12T05:44:12;100295.97;;;11.45;100.00
64521;BME280;50896;46.714;17.322;2023-05-12T05:46:39;100292.66;;;11.43;100.00
64521;BME280;50896;46.714;17.322;2023-05-12T05:49:06;100292.31;;;11.38;100.00
64521;BME280;50896;46.714;17.322;2023-05-12T05:51:33;100284.00;;;11.33;100.00
64521;BME280;50896;46.714;17.322;2023-05-12T05:54:00;100295.81;;;11.38;100.00
64521;BME280;50896;46.714;17.322;2023-05-12T05:56:26;100300.31;;;11.29;100.00
64521;BME280;50896;46.714;17.322;2023-05-12T05:58:53;100291.69;;;11.27;100.00
64521;BME280;50896;46.714;17.322;2023-05-12T06:01:21;100294.66;;;11.24;100.00
64521;BME280;50896;46.714;17.322;2023-05-12T06:03:47;100290.38;;;11.23;100.00
64521;BME280;50896;46.714;17.322;2023-05-12T06:06:14;100299.50;;;11.29;100.00
64521;BME280;50896;46.714;17.322;2023-05-12T06:08:42;100298.34;;;11.32;100.00
64521;BME280;50896;46.714;17.322;2023-05-12T06:11:09;100304.13;;;11.35;100.00
64521;BME280;50896;46.714;17.322;2023-05-12T06:13:36;100304.63;;;11.39;100.00
64521;BME280;50896;46.714;17.322;2023-05-12T06:16:03;100311.28;;;11.43;100.00
64521;BME280;50896;46.714;17.322;2023-05-12T06:18:32;100310.13;;;11.37;100.00
64521;BME280;50896;46.714;17.322;2023-05-12T06:21:04;100315.28;;;11.39;100.00
64521;BME280;50896;46.714;17.322;2023-05-12T06:23:31;100321.59;;;11.38;100.00
64521;BME280;50896;46.714;17.322;2023-05-12T06:25:58;100314.44;;;11.30;100.00
64521;BME280;50896;46.714;17.322;2023-05-12T06:28:26;100317.28;;;11.37;100.00
64521;BME280;50896;46.714;17.322;2023-05-12T06:30:53;100319.28;;;11.43;100.00
64521;BME280;50896;46.714;17.322;2023-05-12T06:33:20;100307.31;;;11.31;100.00
64521;BME280;50896;46.714;17.322;2023-05-12T06:35:46;100331.72;;;11.42;100.00
64521;BME280;50896;46.714;17.322;2023-05-12T06:38:14;100323.09;;;11.40;100.00
64521;BME280;50896;46.714;17.322;2023-05-12T06:40:43;100323.75;;;11.42;100.00
64521;BME280;50896;46.714;17.322;2023-05-12T06:43:10;100330.22;;;11.48;100.00
64521;BME280;50896;46.714;17.322;2023-05-12T06:45:37;100325.06;;;11.46;100.00
64521;BME280;50896;46.714;17.322;2023-05-12T06:48:07;100330.75;;;11.43;100.00
64521;BME280;50896;46.714;17.322;2023-05-12T06:50:35;100318.94;;;11.38;100.00
64521;BME280;50896;46.714;17.322;2023-05-12T06:53:01;100326.91;;;11.46;100.00
64521;BME280;50896;46.714;17.322;2023-05-12T06:55:28;100320.44;;;11.40;100.00
64521;BME280;50896;46.714;17.322;2023-05-12T06:57:55;100332.91;;;11.40;100.00
64521;BME280;50896;46.714;17.322;2023-05-12T07:00:23;100324.59;;;11.43;100.00
64521;BME280;50896;46.714;17.322;2023-05-12T07:02:50;100338.03;;;11.50;100.00
64521;BME280;50896;46.714;17.322;2023-05-12T07:05:18;100329.91;;;11.43;100.00
64521;BME280;50896;46.714;17.322;2023-05-12T07:07:45;100332.22;;;11.46;100.00
64521;BME280;50896;46.714;17.322;2023-05-12T07:10:12;100324.91;;;11.40;100.00
64521;BME280;50896;46.714;17.322;2023-05-12T07:12:39;100340.22;;;11.46;100.00
64521;BME280;50896;46.714;17.322;2023-05-12T07:15:06;100340.06;;;11.39;100.00
64521;BME280;50896;46.714;17.322;2023-05-12T07:17:33;100336.75;;;11.37;100.00
64521;BME280;50896;46.714;17.322;2023-05-12T07:20:00;100330.94;;;11.34;100.00
64521;BME280;50896;46.714;17.322;2023-05-12T07:22:27;100338.91;;;11.42;100.00
64521;BME280;50896;46.714;17.322;2023-05-12T07:24:55;100337.25;;;11.33;100.00
64521;BME280;50896;46.714;17.322;2023-05-12T07:27:22;100333.09;;;11.30;100.00
64521;BME280;50896;46.714;17.322;2023-05-12T07:29:48;100335.72;;;11.38;100.00
64521;BME280;50896;46.714;17.322;2023-05-12T07:32:15;100333.75;;;11.40;100.00
64521;BME280;50896;46.714;17.322;2023-05-12T07:34:42;100339.06;;;11.40;100.00
64521;BME280;50896;46.714;17.322;2023-05-12T07:37:09;100337.06;;;11.42;100.00
64521;BME280;50896;46.714;17.322;2023-05-12T07:39:36;100342.06;;;11.37;100.00
64521;BME280;50896;46.714;17.322;2023-05-12T07:42:03;100342.91;;;11.38;100.00
64521;BME280;50896;46.714;17.322;2023-05-12T07:44:29;100340.41;;;11.44;100.00
64521;BME280;50896;46.714;17.322;2023-05-12T07:46:59;100344.03;;;11.43;100.00
64521;BME280;50896;46.714;17.322;2023-05-12T07:49:25;100347.88;;;11.41;100.00
64521;BME280;50896;46.714;17.322;2023-05-12T07:51:52;100349.22;;;11.37;100.00
64521;BME280;50896;46.714;17.322;2023-05-12T07:54:19;100349.72;;;11.40;100.00
64521;BME280;50896;46.714;17.322;2023-05-12T07:56:46;100346.72;;;11.35;100.00
64521;BME280;50896;46.714;17.322;2023-05-12T07:59:13;100350.19;;;11.44;100.00
64521;BME280;50896;46.714;17.322;2023-05-12T08:01:40;100352.22;;;11.42;100.00
64521;BME280;50896;46.714;17.322;2023-05-12T08:04:07;100357.19;;;11.45;100.00
64521;BME280;50896;46.714;17.322;2023-05-12T08:06:34;100354.53;;;11.45;100.00
64521;BME280;50896;46.714;17.322;2023-05-12T08:09:01;100344.88;;;11.44;100.00
64521;BME280;50896;46.714;17.322;2023-05-12T08:11:27;100361.97;;;11.58;100.00
64521;BME280;50896;46.714;17.322;2023-05-12T08:13:54;100361.97;;;11.58;100.00
64521;BME280;50896;46.714;17.322;2023-05-12T08:16:21;100372.31;;;11.61;100.00
64521;BME280;50896;46.714;17.322;2023-05-12T08:18:48;100375.63;;;11.63;100.00
64521;BME280;50896;46.714;17.322;2023-05-12T08:21:15;100373.47;;;11.58;100.00
64521;BME280;50896;46.714;17.322;2023-05-12T08:23:42;100370.13;;;11.56;100.00
64521;BME280;50896;46.714;17.322;2023-05-12T08:26:10;100382.63;;;11.64;100.00
64521;BME280;50896;46.714;17.322;2023-05-12T08:28:36;100380.78;;;11.65;100.00
64521;BME280;50896;46.714;17.322;2023-05-12T08:31:03;100378.09;;;11.65;100.00
64521;BME280;50896;46.714;17.322;2023-05-12T08:33:30;100384.94;;;11.67;100.00
64521;BME280;50896;46.714;17.322;2023-05-12T08:35:59;100386.78;;;11.67;100.00
64521;BME280;50896;46.714;17.322;2023-05-12T08:38:26;100376.44;;;11.63;100.00
64521;BME280;50896;46.714;17.322;2023-05-12T08:43:49;100389.25;;;11.68;100.00
64521;BME280;50896;46.714;17.322;2023-05-12T08:46:17;100385.47;;;11.62;100.00
64521;BME280;50896;46.714;17.322;2023-05-12T08:48:49;100384.09;;;11.75;100.00
64521;BME280;50896;46.714;17.322;2023-05-12T08:51:17;100387.75;;;11.74;100.00
64521;BME280;50896;46.714;17.322;2023-05-12T08:53:46;100389.41;;;11.75;100.00
64521;BME280;50896;46.714;17.322;2023-05-12T08:56:14;100390.25;;;11.75;100.00
64521;BME280;50896;46.714;17.322;2023-05-12T08:58:48;100386.59;;;11.76;100.00
64521;BME280;50896;46.714;17.322;2023-05-12T09:01:15;100386.75;;;11.75;100.00
64521;BME280;50896;46.714;17.322;2023-05-12T09:03:43;100383.75;;;11.78;100.00
64521;BME280;50896;46.714;17.322;2023-05-12T09:06:10;100375.44;;;11.73;100.00
64521;BME280;50896;46.714;17.322;2023-05-12T09:08:37;100383.59;;;11.71;100.00
64521;BME280;50896;46.714;17.322;2023-05-12T09:11:09;100389.75;;;11.72;100.00
64521;BME280;50896;46.714;17.322;2023-05-12T09:16:23;100386.59;;;11.76;100.00
64521;BME280;50896;46.714;17.322;2023-05-12T09:21:19;100391.25;;;11.74;100.00
64521;BME280;50896;46.714;17.322;2023-05-12T09:26:22;100395.56;;;11.75;100.00
64521;BME280;50896;46.714;17.322;2023-05-12T09:29:04;100400.72;;;11.77;100.00
64521;BME280;50896;46.714;17.322;2023-05-12T09:31:34;100403.38;;;11.77;100.00
64521;BME280;50896;46.714;17.322;2023-05-12T09:34:06;100400.56;;;11.78;100.00
64521;BME280;50896;46.714;17.322;2023-05-12T09:36:34;100400.38;;;11.72;100.00
64521;BME280;50896;46.714;17.322;2023-05-12T09:39:04;100406.69;;;11.79;100.00
64521;BME280;50896;46.714;17.322;2023-05-12T09:41:38;100404.03;;;11.79;100.00
64521;BME280;50896;46.714;17.322;2023-05-12T09:44:06;100393.25;;;11.80;100.00
64521;BME280;50896;46.714;17.322;2023-05-12T09:46:34;100394.22;;;11.79;100.00
64521;BME280;50896;46.714;17.322;2023-05-12T09:49:02;100391.91;;;11.85;100.00
64521;BME280;50896;46.714;17.322;2023-05-12T09:51:30;100393.69;;;11.92;100.00
64521;BME280;50896;46.714;17.322;2023-05-12T09:53:57;100396.69;;;11.89;100.00
64521;BME280;50896;46.714;17.322;2023-05-12T09:56:27;100391.03;;;11.92;100.00
64521;BME280;50896;46.714;17.322;2023-05-12T09:58:56;100392.19;;;11.90;100.00
64521;BME280;50896;46.714;17.322;2023-05-12T10:01:23;100392.69;;;11.93;100.00
64521;BME280;50896;46.714;17.322;2023-05-12T10:03:53;100401.00;;;11.99;100.00
64521;BME280;50896;46.714;17.322;2023-05-12T10:06:26;100389.06;;;11.86;100.00
64521;BME280;50896;46.714;17.322;2023-05-12T10:09:24;100395.69;;;11.99;100.00
64521;BME280;50896;46.714;17.322;2023-05-12T10:11:54;100390.34;;;11.99;100.00
64521;BME280;50896;46.714;17.322;2023-05-12T10:14:22;100392.69;;;12.02;100.00
64521;BME280;50896;46.714;17.322;2023-05-12T10:16:49;100397.34;;;12.00;100.00
64521;BME280;50896;46.714;17.322;2023-05-12T10:19:17;100398.31;;;12.07;100.00
64521;BME280;50896;46.714;17.322;2023-05-12T10:21:45;100390.00;;;12.10;100.00
64521;BME280;50896;46.714;17.322;2023-05-12T10:24:16;100392.97;;;12.15;100.00
64521;BME280;50896;46.714;17.322;2023-05-12T10:26:46;100379.00;;;12.13;100.00
64521;BME280;50896;46.714;17.322;2023-05-12T10:29:24;100389.13;;;12.18;100.00
64521;BME280;50896;46.714;17.322;2023-05-12T10:31:56;100387.94;;;12.20;100.00
64521;BME280;50896;46.714;17.322;2023-05-12T10:34:29;100392.09;;;12.23;100.00
64521;BME280;50896;46.714;17.322;2023-05-12T10:36:57;100387.59;;;12.23;100.00
64521;BME280;50896;46.714;17.322;2023-05-12T10:39:28;100387.56;;;12.31;100.00
64521;BME280;50896;46.714;17.322;2023-05-12T10:42:06;100377.88;;;12.30;100.00
64521;BME280;50896;46.714;17.322;2023-05-12T10:44:34;100394.88;;;12.38;100.00
64521;BME280;50896;46.714;17.322;2023-05-12T10:47:11;100394.38;;;12.34;100.00
64521;BME280;50896;46.714;17.322;2023-05-12T10:49:39;100392.53;;;12.35;100.00
64521;BME280;50896;46.714;17.322;2023-05-12T10:52:10;100393.06;;;12.30;100.00
64521;BME280;50896;46.714;17.322;2023-05-12T10:54:43;100393.88;;;12.30;100.00
64521;BME280;50896;46.714;17.322;2023-05-12T10:57:15;100383.41;;;12.29;100.00
64521;BME280;50896;46.714;17.322;2023-05-12T11:00:11;100391.91;;;12.33;100.00
64521;BME280;50896;46.714;17.322;2023-05-12T11:02:48;100396.88;;;12.36;100.00
64521;BME280;50896;46.714;17.322;2023-05-12T11:05:17;100392.53;;;12.35;100.00
64521;BME280;50896;46.714;17.322;2023-05-12T11:07:48;100399.34;;;12.37;100.00
64521;BME280;50896;46.714;17.322;2023-05-12T11:10:16;100388.22;;;12.34;100.00
64521;BME280;50896;46.714;17.322;2023-05-12T11:12:45;100398.69;;;12.43;100.00
64521;BME280;50896;46.714;17.322;2023-05-12T11:15:12;100397.47;;;12.46;100.00
64521;BME280;50896;46.714;17.322;2023-05-12T11:17:42;100401.44;;;12.50;100.00
64521;BME280;50896;46.714;17.322;2023-05-12T11:20:09;100399.59;;;12.59;100.00
64521;BME280;50896;46.714;17.322;2023-05-12T11:22:36;100396.22;;;12.65;100.00
64521;BME280;50896;46.714;17.322;2023-05-12T11:25:09;100401.19;;;12.68;100.00
64521;BME280;50896;46.714;17.322;2023-05-12T11:27:36;100404.69;;;12.69;100.00
64521;BME280;50896;46.714;17.322;2023-05-12T11:30:10;100404.69;;;12.69;100.00
64521;BME280;50896;46.714;17.322;2023-05-12T11:32:37;100405.69;;;12.68;100.00
64521;BME280;50896;46.714;17.322;2023-05-12T11:35:12;100402.53;;;12.64;100.00
64521;BME280;50896;46.714;17.322;2023-05-12T11:37:41;100404.03;;;12.67;100.00
64521;BME280;50896;46.714;17.322;2023-05-12T11:40:13;100410.22;;;12.67;100.00
64521;BME280;50896;46.714;17.322;2023-05-12T11:42:40;100415.06;;;12.63;100.00
64521;BME280;50896;46.714;17.322;2023-05-12T11:45:25;100413.75;;;12.59;100.00
64521;BME280;50896;46.714;17.322;2023-05-12T11:48:06;100412.44;;;12.55;100.00
64521;BME280;50896;46.714;17.322;2023-05-12T11:50:37;100414.75;;;12.58;100.00
64521;BME280;50896;46.714;17.322;2023-05-12T11:53:09;100406.88;;;12.65;100.00
64521;BME280;50896;46.714;17.322;2023-05-12T11:58:21;100412.69;;;12.69;100.00
64521;BME280;50896;46.714;17.322;2023-05-12T12:00:49;100415.31;;;12.77;100.00
64521;BME280;50896;46.714;17.322;2023-05-12T12:03:17;100418.97;;;12.76;100.00
64521;BME280;50896;46.714;17.322;2023-05-12T12:05:56;100408.63;;;12.81;100.00
64521;BME280;50896;46.714;17.322;2023-05-12T12:08:23;100402.63;;;12.79;100.00
64521;BME280;50896;46.714;17.322;2023-05-12T12:10:50;100415.31;;;12.77;100.00
64521;BME280;50896;46.714;17.322;2023-05-12T12:13:21;100409.66;;;12.72;100.00
64521;BME280;50896;46.714;17.322;2023-05-12T12:15:51;100419.97;;;12.75;100.00
64521;BME280;50896;46.714;17.322;2023-05-12T12:18:18;100411.75;;;12.61;100.00
64521;BME280;50896;46.714;17.322;2023-05-12T12:20:46;100424.72;;;12.64;100.00
64521;BME280;50896;46.714;17.322;2023-05-12T12:23:13;100426.84;;;12.69;100.00
64521;BME280;50896;46.714;17.322;2023-05-12T12:25:39;100420.06;;;12.58;100.00
64521;BME280;50896;46.714;17.322;2023-05-12T12:28:06;100413.91;;;12.58;100.00
64521;BME280;50896;46.714;17.322;2023-05-12T12:30:33;100420.38;;;12.63;100.00
64521;BME280;50896;46.714;17.322;2023-05-12T12:33:00;100414.69;;;12.67;100.00
64521;BME280;50896;46.714;17.322;2023-05-12T12:35:27;100414.34;;;12.70;100.00
64521;BME280;50896;46.714;17.322;2023-05-12T12:37:54;100413.22;;;12.64;100.00
64521;BME280;50896;46.714;17.322;2023-05-12T12:40:21;100421.88;;;12.66;100.00
64521;BME280;50896;46.714;17.322;2023-05-12T12:42:47;100414.53;;;12.68;100.00
64521;BME280;50896;46.714;17.322;2023-05-12T12:45:14;100419.16;;;12.74;100.00
64521;BME280;50896;46.714;17.322;2023-05-12T12:47:43;100416.53;;;12.66;100.00
64521;BME280;50896;46.714;17.322;2023-05-12T12:50:10;100419.16;;;12.74;100.00